createdAt,value
2019-03-31T00:02:26.301Z,101378.78
2019-03-31T00:04:57.302Z,101384.09
2019-03-31T00:07:28.341Z,101378.54
2019-03-31T00:09:59.457Z,101380.78
2019-03-31T00:12:30.606Z,101376.94
2019-03-31T00:15:01.739Z,101382.37
2019-03-31T00:17:35.697Z,101375.47
2019-03-31T00:20:06.942Z,101377.58
2019-03-31T00:22:38.152Z,101379.53
2019-03-31T00:25:09.242Z,101381.03
2019-03-31T00:27:40.261Z,101372.30
2019-03-31T00:30:11.426Z,101370.44
2019-03-31T00:32:42.517Z,101372.77
2019-03-31T00:35:13.575Z,101361.83
2019-03-31T00:37:44.647Z,101372.89
2019-03-31T00:40:15.764Z,101370.69
2019-03-31T00:42:46.813Z,101363.06
2019-03-31T00:45:17.921Z,101367.88
2019-03-31T00:47:49.035Z,101365.05
2019-03-31T00:50:20.156Z,101369.09
2019-03-31T00:52:51.252Z,101365.28
2019-03-31T00:55:22.329Z,101365.91
2019-03-31T00:57:53.357Z,101357.29
2019-03-31T01:00:42.330Z,101358.38
2019-03-31T01:03:15.327Z,101360.00
2019-03-31T01:05:46.546Z,101356.67
2019-03-31T01:08:17.835Z,101351.03
2019-03-31T01:10:48.995Z,101351.02
2019-03-31T01:13:20.083Z,101349.16
2019-03-31T01:15:52.117Z,101347.09
2019-03-31T01:18:23.317Z,101339.97
2019-03-31T01:20:54.475Z,101339.95
2019-03-31T01:23:26.085Z,101338.23
2019-03-31T01:26:00.525Z,101336.11
2019-03-31T01:28:31.652Z,101331.95
2019-03-31T01:31:03.521Z,101326.05
2019-03-31T01:33:34.691Z,101333.20
2019-03-31T01:36:05.979Z,101331.45
2019-03-31T01:38:37.315Z,101319.78
2019-03-31T01:41:08.373Z,101321.50
2019-03-31T01:43:39.698Z,101323.44
2019-03-31T01:46:12.417Z,101322.73
2019-03-31T01:48:43.522Z,101320.53
2019-03-31T01:51:14.559Z,101321.27
2019-03-31T01:53:45.776Z,101320.41
2019-03-31T01:56:17.970Z,101318.22
2019-03-31T01:58:49.277Z,101321.87
2019-03-31T02:01:20.968Z,101318.94
2019-03-31T02:03:52.064Z,101314.51
2019-03-31T02:06:23.443Z,101324.10
2019-03-31T02:08:54.622Z,101333.07
2019-03-31T02:11:25.892Z,101328.02
2019-03-31T02:13:57.139Z,101329.86
2019-03-31T02:16:28.361Z,101332.18
2019-03-31T02:18:59.605Z,101327.15
2019-03-31T02:21:30.792Z,101333.80
2019-03-31T02:24:01.804Z,101332.81
2019-03-31T02:26:32.900Z,101332.42
2019-03-31T02:29:04.146Z,101322.22
2019-03-31T02:31:35.414Z,101323.95
2019-03-31T02:34:06.461Z,101321.98
2019-03-31T02:36:37.603Z,101323.30
2019-03-31T02:39:08.691Z,101328.26
2019-03-31T02:41:39.922Z,101331.44
2019-03-31T02:44:10.954Z,101326.77
2019-03-31T02:46:42.200Z,101323.42
2019-03-31T02:49:13.312Z,101321.80
2019-03-31T02:51:45.541Z,101328.63
2019-03-31T02:54:16.455Z,101325.93
2019-03-31T02:56:47.713Z,101333.70
2019-03-31T02:59:18.878Z,101331.27
2019-03-31T03:01:50.035Z,101333.61
2019-03-31T03:04:22.304Z,101327.34
2019-03-31T03:06:53.352Z,101330.81
2019-03-31T03:09:25.716Z,101329.80
2019-03-31T03:11:56.726Z,101337.06
2019-03-31T03:14:27.873Z,101343.42
2019-03-31T03:16:59.015Z,101342.70
2019-03-31T03:19:30.086Z,101343.91
2019-03-31T03:22:01.211Z,101343.27
2019-03-31T03:24:32.272Z,101339.34
2019-03-31T03:27:03.298Z,101335.53
2019-03-31T03:29:34.400Z,101328.16
2019-03-31T03:32:05.691Z,101329.70
2019-03-31T03:34:37.076Z,101331.93
2019-03-31T03:37:08.135Z,101325.09
2019-03-31T03:39:39.289Z,101331.45
2019-03-31T03:42:10.432Z,101325.60
2019-03-31T03:44:41.495Z,101328.30
2019-03-31T03:47:12.558Z,101333.10
2019-03-31T03:49:43.620Z,101327.12
2019-03-31T03:52:14.850Z,101324.76
2019-03-31T03:54:46.965Z,101328.57
2019-03-31T03:57:18.086Z,101337.05
2019-03-31T03:59:49.213Z,101334.16
2019-03-31T04:02:20.240Z,101338.47
2019-03-31T04:04:51.270Z,101337.00
2019-03-31T04:07:22.318Z,101345.73
2019-03-31T04:09:53.428Z,101344.63
2019-03-31T04:12:24.513Z,101343.27
2019-03-31T04:14:55.573Z,101339.19
2019-03-31T04:17:26.694Z,101337.34
2019-03-31T04:19:57.722Z,101334.36
2019-03-31T04:22:28.955Z,101333.62
2019-03-31T04:25:00.162Z,101333.77
2019-03-31T04:27:31.958Z,101327.78
2019-03-31T04:30:03.191Z,101333.16
2019-03-31T04:32:38.478Z,101336.47
2019-03-31T04:35:07.232Z,101339.91
2019-03-31T04:37:38.257Z,101335.48
2019-03-31T04:40:09.433Z,101333.44
2019-03-31T04:42:40.541Z,101332.30
2019-03-31T04:45:11.787Z,101327.64
2019-03-31T04:47:42.915Z,101330.53
2019-03-31T04:50:13.976Z,101328.05
2019-03-31T04:52:45.166Z,101325.50
2019-03-31T04:55:16.304Z,101322.28
2019-03-31T04:57:47.460Z,101316.62
2019-03-31T05:00:18.678Z,101316.34
2019-03-31T05:02:49.684Z,101325.83
2019-03-31T05:05:20.782Z,101320.67
2019-03-31T05:07:51.823Z,101322.22
2019-03-31T05:10:23.000Z,101325.09
2019-03-31T05:12:54.309Z,101319.42
2019-03-31T05:15:25.531Z,101323.64
2019-03-31T05:17:56.586Z,101322.55
2019-03-31T05:20:27.676Z,101319.86
2019-03-31T05:22:58.843Z,101323.89
2019-03-31T05:25:30.957Z,101324.38
2019-03-31T05:28:02.058Z,101327.42
2019-03-31T05:30:33.061Z,101324.54
2019-03-31T05:33:04.169Z,101325.15
2019-03-31T05:35:35.219Z,101327.12
2019-03-31T05:38:06.410Z,101325.78
2019-03-31T05:40:37.622Z,101326.86
2019-03-31T05:43:08.744Z,101311.83
2019-03-31T05:45:39.822Z,101314.22
2019-03-31T05:48:11.107Z,101320.73
2019-03-31T05:50:42.271Z,101327.88
2019-03-31T05:53:13.455Z,101321.48
2019-03-31T05:55:44.638Z,101329.16
2019-03-31T05:58:15.965Z,101320.75
2019-03-31T06:00:47.260Z,101328.25
2019-03-31T06:03:18.592Z,101323.45
2019-03-31T06:05:49.894Z,101332.80
2019-03-31T06:08:21.071Z,101334.95
2019-03-31T06:10:52.104Z,101327.84
2019-03-31T06:13:23.207Z,101324.23
2019-03-31T06:15:54.570Z,101316.89
2019-03-31T06:18:27.448Z,101316.05
2019-03-31T06:20:58.607Z,101302.17
2019-03-31T06:23:29.812Z,101302.10
2019-03-31T06:26:00.877Z,101300.74
2019-03-31T06:28:31.921Z,101305.36
2019-03-31T06:31:03.047Z,101290.20
2019-03-31T06:33:34.253Z,101295.97
2019-03-31T06:36:05.375Z,101297.53
2019-03-31T06:38:38.120Z,101294.64
2019-03-31T06:41:10.372Z,101296.99
2019-03-31T06:43:41.717Z,101288.67
2019-03-31T06:46:13.036Z,101286.38
2019-03-31T06:48:44.258Z,101281.44
2019-03-31T06:51:17.088Z,101279.91
2019-03-31T06:53:48.473Z,101275.81
2019-03-31T06:56:19.622Z,101276.64
2019-03-31T06:58:50.741Z,101272.24
2019-03-31T07:01:21.833Z,101269.00
2019-03-31T07:03:52.998Z,101262.05
2019-03-31T07:06:24.195Z,101252.14
2019-03-31T07:08:55.375Z,101253.54
2019-03-31T07:11:26.629Z,101250.80
2019-03-31T07:13:57.895Z,101255.45
2019-03-31T07:16:29.081Z,101248.77
2019-03-31T07:19:00.320Z,101250.14
2019-03-31T07:21:32.224Z,101247.19
2019-03-31T07:24:05.231Z,101255.55
2019-03-31T07:26:36.375Z,101253.85
2019-03-31T07:29:07.517Z,101255.65
2019-03-31T07:31:38.752Z,101255.95
2019-03-31T07:34:10.036Z,101250.28
2019-03-31T07:36:41.259Z,101255.95
2019-03-31T07:39:12.451Z,101256.05
2019-03-31T07:41:44.189Z,101248.88
2019-03-31T07:44:15.550Z,101248.05
2019-03-31T07:46:46.806Z,101250.57
2019-03-31T07:49:17.939Z,101247.80
2019-03-31T07:51:50.783Z,101244.69
2019-03-31T07:54:21.914Z,101240.57
2019-03-31T07:56:53.296Z,101235.09
2019-03-31T07:59:24.501Z,101235.41
2019-03-31T08:01:55.763Z,101238.09
2019-03-31T08:04:26.781Z,101236.87
2019-03-31T08:06:58.047Z,101231.28
2019-03-31T08:09:29.302Z,101235.34
2019-03-31T08:12:00.549Z,101226.30
2019-03-31T08:14:32.713Z,101221.06
2019-03-31T08:17:03.981Z,101221.49
2019-03-31T08:19:34.995Z,101221.95
2019-03-31T08:22:06.117Z,101218.88
2019-03-31T08:24:43.760Z,101219.58
2019-03-31T08:27:15.933Z,101214.38
2019-03-31T08:29:51.951Z,101211.94
2019-03-31T08:32:19.903Z,101215.05
2019-03-31T08:34:51.047Z,101207.73
2019-03-31T08:37:22.141Z,101205.71
2019-03-31T08:39:53.258Z,101194.19
2019-03-31T08:42:24.492Z,101199.70
2019-03-31T08:44:55.629Z,101194.13
2019-03-31T08:47:27.628Z,101184.38
2019-03-31T08:50:01.852Z,101185.81
2019-03-31T08:52:31.751Z,101179.82
2019-03-31T08:55:02.946Z,101187.40
2019-03-31T08:57:34.439Z,101184.03
2019-03-31T09:00:11.828Z,101179.52
2019-03-31T09:02:42.977Z,101177.44
2019-03-31T09:05:14.204Z,101177.92
2019-03-31T09:07:45.341Z,101173.88
2019-03-31T09:10:16.432Z,101170.56
2019-03-31T09:12:48.689Z,101173.05
2019-03-31T09:15:20.261Z,101165.59
2019-03-31T09:17:54.100Z,101162.20
2019-03-31T09:20:24.218Z,101162.91
2019-03-31T09:22:56.464Z,101161.59
2019-03-31T09:25:27.584Z,101166.07
2019-03-31T09:27:58.671Z,101160.48
2019-03-31T09:30:29.858Z,101157.54
2019-03-31T09:33:01.063Z,101156.73
2019-03-31T09:35:33.295Z,101150.77
2019-03-31T09:38:04.466Z,101145.34
2019-03-31T09:40:35.582Z,101144.97
2019-03-31T09:43:06.768Z,101144.81
2019-03-31T09:45:37.949Z,101138.22
2019-03-31T09:48:09.135Z,101141.95
2019-03-31T09:50:40.363Z,101136.00
2019-03-31T09:53:11.511Z,101130.93
2019-03-31T09:55:42.808Z,101126.55
2019-03-31T09:58:14.087Z,101125.63
2019-03-31T10:00:47.921Z,101133.20
2019-03-31T10:03:19.112Z,101129.13
2019-03-31T10:05:50.536Z,101130.77
2019-03-31T10:08:22.383Z,101128.47
2019-03-31T10:10:56.145Z,101125.81
2019-03-31T10:13:28.553Z,101120.34
2019-03-31T10:15:59.704Z,101122.90
2019-03-31T10:18:30.929Z,101115.00
2019-03-31T10:21:02.166Z,101111.94
2019-03-31T10:23:33.291Z,101104.55
2019-03-31T10:26:04.878Z,101102.44
2019-03-31T10:28:35.947Z,101091.41
2019-03-31T10:31:07.194Z,101085.63
2019-03-31T10:33:38.347Z,101085.94
2019-03-31T10:36:12.742Z,101079.73
2019-03-31T10:38:42.608Z,101078.98
2019-03-31T10:41:13.936Z,101073.56
2019-03-31T10:43:45.193Z,101074.69
2019-03-31T10:46:16.349Z,101062.09
2019-03-31T10:48:47.978Z,101060.09
2019-03-31T10:51:19.092Z,101065.86
2019-03-31T10:53:50.382Z,101068.19
2019-03-31T10:56:23.226Z,101067.95
2019-03-31T10:58:54.381Z,101066.16
2019-03-31T11:01:25.576Z,101063.06
2019-03-31T11:03:57.584Z,101062.74
2019-03-31T11:06:28.716Z,101058.09
2019-03-31T11:08:59.964Z,101059.59
2019-03-31T11:11:31.279Z,101060.31
2019-03-31T11:14:02.365Z,101046.60
2019-03-31T11:16:33.672Z,101055.98
2019-03-31T11:19:04.785Z,101049.64
2019-03-31T11:21:40.262Z,101046.45
2019-03-31T11:24:10.482Z,101047.20
2019-03-31T11:26:41.645Z,101041.78
2019-03-31T11:29:13.591Z,101039.88
2019-03-31T11:31:44.649Z,101034.14
2019-03-31T11:34:15.951Z,101031.89
2019-03-31T11:36:47.931Z,101022.97
2019-03-31T11:39:19.178Z,101022.55
2019-03-31T11:41:50.223Z,101024.15
2019-03-31T11:44:21.507Z,101018.33
2019-03-31T11:46:52.605Z,101011.13
2019-03-31T11:49:23.920Z,101008.49
2019-03-31T11:51:55.096Z,101004.23
2019-03-31T11:54:26.164Z,101002.02
2019-03-31T11:56:57.439Z,100998.52
2019-03-31T11:59:28.619Z,100993.72
2019-03-31T12:01:59.842Z,100999.33
2019-03-31T12:04:31.010Z,100992.64
2019-03-31T12:07:02.421Z,100987.55
2019-03-31T12:09:34.190Z,100983.94
2019-03-31T12:12:05.265Z,100983.10
2019-03-31T12:14:36.503Z,100980.55
2019-03-31T12:17:07.664Z,100977.90
2019-03-31T12:19:38.833Z,100981.80
2019-03-31T12:22:12.519Z,100974.93
2019-03-31T12:24:43.686Z,100971.73
2019-03-31T12:27:14.794Z,100968.45
2019-03-31T12:29:45.966Z,100966.83
2019-03-31T12:32:17.051Z,100964.48
2019-03-31T12:34:48.146Z,100962.27
2019-03-31T12:37:19.631Z,100954.93
2019-03-31T12:39:50.737Z,100955.92
2019-03-31T12:42:21.838Z,100954.43
2019-03-31T12:44:53.087Z,100944.45
2019-03-31T12:47:24.230Z,100947.73
2019-03-31T12:49:55.627Z,100938.25
2019-03-31T12:52:26.720Z,100940.16
2019-03-31T12:54:58.246Z,100928.41
2019-03-31T12:57:29.387Z,100930.45
2019-03-31T13:00:00.695Z,100920.72
2019-03-31T13:02:32.081Z,100917.17
2019-03-31T13:05:08.105Z,100915.45
2019-03-31T13:07:55.702Z,100915.22
2019-03-31T13:10:18.661Z,100914.22
2019-03-31T13:12:49.860Z,100917.03
2019-03-31T13:15:21.042Z,100910.67
2019-03-31T13:17:52.344Z,100908.92
2019-03-31T13:20:30.364Z,100896.97
2019-03-31T13:23:06.332Z,100896.25
2019-03-31T13:25:39.147Z,100888.86
2019-03-31T13:28:11.947Z,100888.22
2019-03-31T13:30:43.262Z,100880.07
2019-03-31T13:33:14.391Z,100878.76
2019-03-31T13:35:45.566Z,100879.13
2019-03-31T13:38:16.667Z,100871.41
2019-03-31T13:40:50.510Z,100869.50
2019-03-31T13:43:20.838Z,100874.84
2019-03-31T13:45:51.898Z,100866.59
2019-03-31T13:48:22.949Z,100859.68
2019-03-31T13:50:55.843Z,100858.94
2019-03-31T13:53:27.048Z,100861.26
2019-03-31T13:55:58.239Z,100855.02
2019-03-31T13:58:30.512Z,100859.44
2019-03-31T14:01:02.258Z,100852.71
2019-03-31T14:03:34.100Z,100850.14
2019-03-31T14:06:05.296Z,100846.60
2019-03-31T14:08:36.541Z,100848.81
2019-03-31T14:11:07.604Z,100845.17
2019-03-31T14:13:38.705Z,100849.39
2019-03-31T14:16:09.805Z,100844.27
2019-03-31T14:18:41.180Z,100841.42
2019-03-31T14:21:12.415Z,100842.95
2019-03-31T14:23:44.685Z,100843.51
2019-03-31T14:26:15.904Z,100845.00
2019-03-31T14:28:47.250Z,100840.90
2019-03-31T14:31:19.175Z,100836.38
2019-03-31T14:33:50.647Z,100836.34
2019-03-31T14:36:21.808Z,100836.23
2019-03-31T14:38:53.097Z,100837.49
2019-03-31T14:41:24.217Z,100828.05
2019-03-31T14:43:56.331Z,100825.09
2019-03-31T14:46:28.021Z,100819.50
2019-03-31T14:48:59.313Z,100825.62
2019-03-31T14:51:30.464Z,100818.56
2019-03-31T14:54:01.635Z,100819.23
2019-03-31T14:56:32.863Z,100816.28
2019-03-31T14:59:04.010Z,100814.38
2019-03-31T15:01:35.094Z,100814.08
2019-03-31T15:04:06.346Z,100811.23
2019-03-31T15:06:37.460Z,100812.23
2019-03-31T15:09:09.036Z,100808.53
2019-03-31T15:11:40.153Z,100807.71
2019-03-31T15:14:11.344Z,100812.70
2019-03-31T15:16:42.425Z,100810.19
2019-03-31T15:19:13.590Z,100809.86
2019-03-31T15:21:45.310Z,100799.27
2019-03-31T15:24:16.564Z,100806.61
2019-03-31T15:26:47.659Z,100800.89
2019-03-31T15:29:18.839Z,100801.22
2019-03-31T15:31:49.924Z,100801.34
2019-03-31T15:34:20.974Z,100799.77
2019-03-31T15:36:52.229Z,100799.56
2019-03-31T15:39:23.437Z,100790.98
2019-03-31T15:41:54.675Z,100793.64
2019-03-31T15:44:25.860Z,100793.78
2019-03-31T15:46:57.048Z,100789.86
2019-03-31T15:49:28.032Z,100798.90
2019-03-31T15:51:59.268Z,100791.70
2019-03-31T15:54:30.459Z,100794.38
2019-03-31T15:57:01.614Z,100793.65
2019-03-31T15:59:32.755Z,100788.14
2019-03-31T16:02:03.849Z,100790.03
2019-03-31T16:04:34.901Z,100794.45
2019-03-31T16:07:06.228Z,100794.64
2019-03-31T16:09:37.412Z,100791.65
2019-03-31T16:12:08.618Z,100796.48
2019-03-31T16:14:40.041Z,100793.20
2019-03-31T16:17:11.173Z,100798.91
2019-03-31T16:19:42.279Z,100802.94
2019-03-31T16:22:13.442Z,100804.79
2019-03-31T16:24:46.142Z,100807.48
2019-03-31T16:27:17.201Z,100803.30
2019-03-31T16:29:48.432Z,100805.26
2019-03-31T16:32:19.747Z,100800.30
2019-03-31T16:34:50.900Z,100805.66
2019-03-31T16:37:23.213Z,100808.36
2019-03-31T16:39:54.489Z,100804.51
2019-03-31T16:42:25.683Z,100804.66
2019-03-31T16:44:58.363Z,100808.48
2019-03-31T16:47:29.639Z,100810.98
2019-03-31T16:50:01.501Z,100808.11
2019-03-31T16:52:32.831Z,100813.25
2019-03-31T16:55:04.867Z,100809.58
2019-03-31T16:57:36.058Z,100820.17
2019-03-31T17:00:07.277Z,100812.60
2019-03-31T17:02:39.463Z,100816.78
2019-03-31T17:05:21.648Z,100819.48
2019-03-31T17:07:43.471Z,100820.33
2019-03-31T17:10:14.579Z,100819.44
2019-03-31T17:12:45.839Z,100833.77
2019-03-31T17:15:17.014Z,100824.08
2019-03-31T17:17:48.187Z,100827.22
2019-03-31T17:20:19.359Z,100823.77
2019-03-31T17:22:50.675Z,100825.65
2019-03-31T17:25:21.819Z,100821.60
2019-03-31T17:27:53.114Z,100826.25
2019-03-31T17:30:24.296Z,100815.14
2019-03-31T17:32:56.574Z,100814.60
2019-03-31T17:35:27.747Z,100818.61
2019-03-31T17:37:59.067Z,100813.43
2019-03-31T17:40:30.365Z,100814.47
2019-03-31T17:43:01.475Z,100815.08
2019-03-31T17:45:32.522Z,100821.02
2019-03-31T17:48:03.672Z,100822.38
2019-03-31T17:50:34.915Z,100821.47
2019-03-31T17:53:06.332Z,100816.11
2019-03-31T17:55:37.420Z,100823.03
2019-03-31T17:58:08.697Z,100823.31
2019-03-31T18:00:40.877Z,100828.02
2019-03-31T18:03:15.450Z,100830.30
2019-03-31T18:05:45.015Z,100829.14
2019-03-31T18:08:16.208Z,100831.73
2019-03-31T18:10:48.522Z,100834.08
2019-03-31T18:13:19.693Z,100828.34
2019-03-31T18:15:50.983Z,100831.55
2019-03-31T18:18:22.568Z,100831.66
2019-03-31T18:20:53.664Z,100831.17
2019-03-31T18:23:24.839Z,100830.00
2019-03-31T18:25:55.910Z,100823.08
2019-03-31T18:28:27.102Z,100821.69
2019-03-31T18:30:58.356Z,100820.50
2019-03-31T18:33:29.581Z,100820.08
2019-03-31T18:36:00.987Z,100819.92
2019-03-31T18:38:32.351Z,100813.41
2019-03-31T18:41:03.928Z,100807.82
2019-03-31T18:43:50.194Z,100810.50
2019-03-31T18:46:09.153Z,100804.09
2019-03-31T18:48:40.466Z,100807.66
2019-03-31T18:51:11.940Z,100802.17
2019-03-31T18:54:00.109Z,100817.05
2019-03-31T18:56:38.842Z,100811.39
2019-03-31T18:59:23.725Z,100813.65
2019-03-31T19:02:02.771Z,100812.50
2019-03-31T19:04:35.727Z,100806.19
2019-03-31T19:07:11.425Z,100804.42
2019-03-31T19:10:02.285Z,100807.28
2019-03-31T19:12:53.367Z,100799.34
2019-03-31T19:15:42.723Z,100802.53
2019-03-31T19:18:23.941Z,100794.75
2019-03-31T19:21:11.114Z,100794.38
2019-03-31T19:23:39.867Z,100800.19
2019-03-31T19:26:12.661Z,100799.52
2019-03-31T19:28:57.508Z,100796.19
2019-03-31T19:31:33.421Z,100800.34
2019-03-31T19:34:06.248Z,100802.44
2019-03-31T19:36:42.199Z,100806.56
2019-03-31T19:39:15.023Z,100799.09
2019-03-31T19:41:50.504Z,100804.19
2019-03-31T19:44:35.574Z,100801.25
2019-03-31T19:47:16.922Z,100804.43
2019-03-31T19:49:58.919Z,100802.52
2019-03-31T19:52:31.727Z,100796.56
2019-03-31T19:55:07.073Z,100794.50
2019-03-31T19:57:51.979Z,100799.14
2019-03-31T20:00:39.801Z,100809.77
2019-03-31T20:03:29.107Z,100811.36
2019-03-31T20:06:18.102Z,100811.19
2019-03-31T20:08:53.546Z,100816.30
2019-03-31T20:11:41.626Z,100816.83
2019-03-31T20:14:14.425Z,100816.33
2019-03-31T20:16:47.299Z,100818.38
2019-03-31T20:19:29.290Z,100819.06
2019-03-31T20:22:07.798Z,100818.87
2019-03-31T20:24:56.712Z,100815.98
2019-03-31T20:27:44.863Z,100822.30
2019-03-31T20:30:20.165Z,100819.09
2019-03-31T20:33:09.505Z,100814.33
2019-03-31T20:35:42.305Z,100823.87
2019-03-31T20:38:31.643Z,100817.57
2019-03-31T20:41:13.323Z,100818.41
2019-03-31T20:43:57.100Z,100817.75
2019-03-31T20:46:29.287Z,100824.91
2019-03-31T20:49:00.613Z,100829.34
2019-03-31T20:51:31.885Z,100820.15
2019-03-31T20:54:03.112Z,100824.05
2019-03-31T20:56:34.214Z,100818.24
2019-03-31T20:59:05.351Z,100820.44
2019-03-31T21:01:39.354Z,100820.44
2019-03-31T21:04:11.026Z,100816.33
2019-03-31T21:06:44.374Z,100825.20
2019-03-31T21:09:15.561Z,100817.89
2019-03-31T21:11:46.646Z,100819.92
2019-03-31T21:14:17.708Z,100811.07
2019-03-31T21:16:48.781Z,100818.73
2019-03-31T21:19:19.860Z,100824.55
2019-03-31T21:21:50.916Z,100824.55
2019-03-31T21:24:21.993Z,100835.25
2019-03-31T21:26:53.157Z,100835.25
2019-03-31T21:29:24.380Z,100839.28
2019-03-31T21:31:55.418Z,100832.86
2019-03-31T21:34:26.629Z,100828.77
2019-03-31T21:36:57.804Z,100830.96
2019-03-31T21:39:30.639Z,100834.53
2019-03-31T21:42:01.701Z,100834.53
2019-03-31T21:44:32.907Z,100835.05
2019-03-31T21:47:04.118Z,100833.87
2019-03-31T21:49:35.360Z,100826.25
2019-03-31T21:52:06.548Z,100826.25
2019-03-31T21:54:37.850Z,100831.00
2019-03-31T21:57:08.954Z,100824.55
2019-03-31T21:59:40.054Z,100824.55
2019-03-31T22:02:13.094Z,100824.19
2019-03-31T22:04:44.403Z,100827.26
2019-03-31T22:07:15.523Z,100833.05
2019-03-31T22:09:46.643Z,100825.91
2019-03-31T22:12:17.790Z,100826.42
2019-03-31T22:14:48.970Z,100826.42
2019-03-31T22:17:20.280Z,100824.92
2019-03-31T22:19:51.326Z,100821.48
2019-03-31T22:22:22.355Z,100823.37
2019-03-31T22:24:53.611Z,100814.33
2019-03-31T22:27:24.896Z,100814.33
2019-03-31T22:29:56.099Z,100814.83
2019-03-31T22:32:27.421Z,100812.95
2019-03-31T22:34:58.515Z,100809.19
2019-03-31T22:37:29.627Z,100814.83
2019-03-31T22:40:00.840Z,100818.75
2019-03-31T22:42:31.953Z,100813.61
2019-03-31T22:45:03.120Z,100815.48
2019-03-31T22:47:34.305Z,100815.66
2019-03-31T22:50:05.612Z,100809.87
2019-03-31T22:52:36.842Z,100806.81
2019-03-31T22:55:07.879Z,100798.62
2019-03-31T22:57:39.021Z,100804.41
2019-03-31T23:00:12.949Z,100806.29
2019-03-31T23:02:45.675Z,100806.79
2019-03-31T23:05:16.986Z,100794.17
2019-03-31T23:07:48.109Z,100802.02
2019-03-31T23:10:19.288Z,100795.22
2019-03-31T23:12:50.418Z,100776.98
2019-03-31T23:15:21.538Z,100785.82
2019-03-31T23:17:52.706Z,100783.44
2019-03-31T23:20:23.785Z,100778.84
2019-03-31T23:22:54.902Z,100781.06
2019-03-31T23:25:26.132Z,100781.09
2019-03-31T23:27:57.271Z,100784.30
2019-03-31T23:30:28.447Z,100769.81
2019-03-31T23:32:59.562Z,100769.81
2019-03-31T23:35:30.599Z,100782.27
2019-03-31T23:38:01.844Z,100778.34
2019-03-31T23:40:32.868Z,100774.27
2019-03-31T23:43:03.961Z,100777.50
2019-03-31T23:45:35.156Z,100769.83
2019-03-31T23:48:06.249Z,100771.88
2019-03-31T23:50:37.481Z,100772.40
2019-03-31T23:53:08.615Z,100767.30
2019-03-31T23:55:39.736Z,100758.94
2019-03-31T23:58:10.879Z,100759.78
